createdAt,value
2018-03-17T00:00:27.047Z,96192.12
2018-03-17T00:02:58.756Z,96189.03
2018-03-17T00:05:28.530Z,96190.37
2018-03-17T00:08:24.403Z,96182.19
2018-03-17T00:10:58.771Z,96171.83
2018-03-17T00:13:29.735Z,96168.20
2018-03-17T00:16:11.690Z,96170.72
2018-03-17T00:18:41.823Z,96161.08
2018-03-17T00:21:14.828Z,96158.81
2018-03-17T00:23:45.276Z,96155.61
2018-03-17T00:26:18.083Z,96141.36
2018-03-17T00:29:01.452Z,96148.08
2018-03-17T00:31:33.716Z,96146.72
2018-03-17T00:34:18.650Z,96142.55
2018-03-17T00:37:00.052Z,96146.01
2018-03-17T00:39:33.698Z,96150.30
2018-03-17T00:42:03.760Z,96151.08
2018-03-17T00:44:43.398Z,96153.48
2018-03-17T00:47:19.077Z,96148.40
2018-03-17T00:49:49.660Z,96145.86
2018-03-17T00:52:27.692Z,96130.42
2018-03-17T00:55:08.892Z,96126.94
2018-03-17T00:57:41.371Z,96130.98
2018-03-17T01:00:32.059Z,96120.91
2018-03-17T01:03:18.630Z,96113.23
2018-03-17T01:06:01.841Z,96099.16
2018-03-17T01:08:46.572Z,96093.52
2018-03-17T01:11:18.103Z,96089.25
2018-03-17T01:13:52.785Z,96083.34
2018-03-17T01:16:26.678Z,96075.84
2018-03-17T01:19:01.545Z,96064.02
2018-03-17T01:21:31.304Z,96055.30
2018-03-17T01:24:19.046Z,96047.91
2018-03-17T01:26:59.489Z,96034.11
2018-03-17T01:29:38.673Z,96020.53
2018-03-17T01:32:08.934Z,96018.81
2018-03-17T01:34:42.067Z,96022.42
2018-03-17T01:37:16.320Z,96020.27
2018-03-17T01:40:00.331Z,96015.98
2018-03-17T01:42:44.213Z,96004.69
2018-03-17T01:45:26.456Z,95997.06
2018-03-17T01:47:58.970Z,96003.50
2018-03-17T01:50:32.314Z,95992.38
2018-03-17T01:53:19.598Z,95996.25
2018-03-17T01:55:51.727Z,95988.73
2018-03-17T01:58:22.610Z,95966.90
2018-03-17T02:00:56.921Z,95960.86
2018-03-17T02:03:31.527Z,95958.84
2018-03-17T02:06:04.732Z,95949.45
2018-03-17T02:08:38.737Z,95945.97
2018-03-17T02:11:18.535Z,95942.34
2018-03-17T02:14:07.152Z,95939.39
2018-03-17T02:16:49.110Z,95936.70
2018-03-17T02:19:21.305Z,95934.44
2018-03-17T02:22:10.333Z,95919.54
2018-03-17T02:25:02.932Z,95909.50
2018-03-17T02:27:50.503Z,95893.13
2018-03-17T02:30:26.729Z,95884.70
2018-03-17T02:33:06.810Z,95875.84
2018-03-17T02:35:37.573Z,95876.91
2018-03-17T02:38:22.401Z,95870.47
2018-03-17T02:40:56.162Z,95880.81
2018-03-17T02:43:26.261Z,95871.69
2018-03-17T02:45:59.434Z,95866.84
2018-03-17T02:48:38.806Z,95862.56
2018-03-17T02:51:09.630Z,95858.81
2018-03-17T02:53:40.355Z,95853.04
2018-03-17T02:56:26.797Z,95846.47
2018-03-17T02:59:01.844Z,95843.53
2018-03-17T03:01:39.126Z,95842.58
2018-03-17T03:04:21.316Z,95839.89
2018-03-17T03:06:51.052Z,95831.30
2018-03-17T03:09:21.494Z,95829.72
2018-03-17T03:14:56.469Z,95817.52
2018-03-17T03:17:30.600Z,95810.94
2018-03-17T03:20:01.893Z,95811.89
2018-03-17T03:22:37.339Z,95802.92
2018-03-17T03:25:08.581Z,95808.27
2018-03-17T03:27:52.884Z,95803.73
2018-03-17T03:30:29.535Z,95806.91
2018-03-17T03:33:00.557Z,95814.70
2018-03-17T03:35:31.204Z,95820.47
2018-03-17T03:38:06.693Z,95821.14
2018-03-17T03:40:38.775Z,95821.16
2018-03-17T03:43:16.133Z,95815.38
2018-03-17T03:45:48.026Z,95809.64
2018-03-17T03:48:32.810Z,95804.40
2018-03-17T03:51:11.278Z,95804.14
2018-03-17T03:53:42.274Z,95807.36
2018-03-17T03:56:23.926Z,95802.51
2018-03-17T03:58:56.740Z,95787.89
2018-03-17T04:01:30.159Z,95783.73
2018-03-17T04:04:00.591Z,95788.84
2018-03-17T04:06:33.233Z,95780.52
2018-03-17T04:09:04.176Z,95779.33
2018-03-17T04:11:35.229Z,95778.37
2018-03-17T04:14:09.663Z,95773.16
2018-03-17T04:16:42.568Z,95769.94
2018-03-17T04:19:25.557Z,95773.56
2018-03-17T04:21:56.196Z,95776.09
2018-03-17T04:24:33.189Z,95771.55
2018-03-17T04:27:07.688Z,95773.55
2018-03-17T04:29:37.545Z,95778.25
2018-03-17T04:32:27.172Z,95776.76
2018-03-17T04:35:14.671Z,95778.38
2018-03-17T04:37:59.333Z,95777.99
2018-03-17T04:40:32.993Z,95771.67
2018-03-17T04:43:07.344Z,95770.08
2018-03-17T04:45:40.824Z,95773.98
2018-03-17T04:48:14.512Z,95771.30
2018-03-17T04:51:02.830Z,95765.27
2018-03-17T04:53:42.659Z,95753.34
2018-03-17T04:56:14.732Z,95744.06
2018-03-17T04:58:47.755Z,95737.52
2018-03-17T05:01:17.591Z,95739.25
2018-03-17T05:03:47.814Z,95737.27
2018-03-17T05:06:24.367Z,95734.45
2018-03-17T05:08:55.308Z,95733.89
2018-03-17T05:11:25.019Z,95735.11
2018-03-17T05:13:54.595Z,95732.45
2018-03-17T05:16:24.256Z,95724.14
2018-03-17T05:18:55.350Z,95713.98
2018-03-17T05:21:24.814Z,95712.52
2018-03-17T05:23:55.408Z,95713.57
2018-03-17T05:26:25.047Z,95714.79
2018-03-17T05:28:54.662Z,95706.07
2018-03-17T05:31:24.533Z,95706.32
2018-03-17T05:33:54.198Z,95703.77
2018-03-17T05:36:24.488Z,95702.29
2018-03-17T05:38:54.144Z,95693.73
2018-03-17T05:41:24.468Z,95689.82
2018-03-17T05:43:54.777Z,95685.55
2018-03-17T05:46:25.160Z,95693.17
2018-03-17T05:48:55.403Z,95692.50
2018-03-17T05:51:25.085Z,95692.48
2018-03-17T05:53:54.741Z,95691.27
2018-03-17T05:56:24.290Z,95680.83
2018-03-17T05:58:53.933Z,95684.95
2018-03-17T06:01:23.546Z,95680.98
2018-03-17T06:03:53.332Z,95678.46
2018-03-17T06:06:22.873Z,95675.27
2018-03-17T06:08:53.165Z,95664.95
2018-03-17T06:11:22.884Z,95671.12
2018-03-17T06:13:53.402Z,95661.73
2018-03-17T06:16:23.173Z,95657.45
2018-03-17T06:18:53.618Z,95656.37
2018-03-17T06:21:23.797Z,95644.39
2018-03-17T06:23:54.175Z,95642.12
2018-03-17T06:26:23.651Z,95640.50
2018-03-17T06:28:54.020Z,95634.32
2018-03-17T06:31:23.537Z,95640.36
2018-03-17T06:33:53.121Z,95638.73
2018-03-17T06:36:22.888Z,95636.06
2018-03-17T06:38:52.573Z,95638.47
2018-03-17T06:41:22.430Z,95630.55
2018-03-17T06:43:52.316Z,95632.66
2018-03-17T06:46:21.966Z,95626.45
2018-03-17T06:48:51.614Z,95621.44
2018-03-17T06:51:22.356Z,95636.44
2018-03-17T06:53:52.959Z,95629.48
2018-03-17T06:56:22.500Z,95628.64
2018-03-17T06:58:52.193Z,95626.99
2018-03-17T07:01:21.846Z,95628.70
2018-03-17T07:03:52.312Z,95628.70
2018-03-17T07:06:21.931Z,95613.07
2018-03-17T07:08:52.048Z,95613.15
2018-03-17T07:11:22.188Z,95617.91
2018-03-17T07:13:51.903Z,95617.87
2018-03-17T07:16:21.456Z,95621.49
2018-03-17T07:18:51.832Z,95620.17
2018-03-17T07:21:21.512Z,95615.98
2018-03-17T07:23:51.097Z,95615.90
2018-03-17T07:26:21.557Z,95623.31
2018-03-17T07:28:51.279Z,95620.19
2018-03-17T07:31:21.547Z,95627.19
2018-03-17T07:33:51.279Z,95634.80
2018-03-17T07:36:22.100Z,95630.69
2018-03-17T07:38:52.882Z,95623.12
2018-03-17T07:41:23.086Z,95605.50
2018-03-17T07:43:52.915Z,95604.25
2018-03-17T07:46:23.919Z,95598.20
2018-03-17T07:48:55.273Z,95613.06
2018-03-17T07:51:27.818Z,95601.75
2018-03-17T07:53:57.709Z,95595.63
2018-03-17T07:56:29.142Z,95595.65
2018-03-17T07:58:58.781Z,95593.66
2018-03-17T08:01:28.421Z,95592.62
2018-03-17T08:03:58.737Z,95598.38
2018-03-17T08:06:28.330Z,95599.09
2018-03-17T08:08:58.057Z,95599.83
2018-03-17T08:11:28.887Z,95595.58
2018-03-17T08:13:58.591Z,95604.75
2018-03-17T08:16:29.057Z,95603.26
2018-03-17T08:18:59.111Z,95586.56
2018-03-17T08:21:29.747Z,95597.48
2018-03-17T08:24:05.431Z,95587.98
2018-03-17T08:26:36.046Z,95595.01
2018-03-17T08:29:06.105Z,95606.83
2018-03-17T08:31:35.922Z,95601.52
2018-03-17T08:34:06.334Z,95592.92
2018-03-17T08:36:38.217Z,95588.34
2018-03-17T08:39:08.174Z,95574.98
2018-03-17T08:41:37.829Z,95575.48
2018-03-17T08:44:08.271Z,95572.45
2018-03-17T08:46:38.089Z,95571.18
2018-03-17T08:49:07.823Z,95573.38
2018-03-17T08:51:38.298Z,95574.98
2018-03-17T08:54:10.921Z,95575.45
2018-03-17T08:56:41.190Z,95574.92
2018-03-17T08:59:12.267Z,95567.70
2018-03-17T09:01:41.842Z,95570.14
2018-03-17T09:04:12.436Z,95566.94
2018-03-17T09:06:43.120Z,95561.55
2018-03-17T09:09:13.473Z,95567.52
2018-03-17T09:11:43.163Z,95561.47
2018-03-17T09:14:13.632Z,95558.23
2018-03-17T09:16:44.523Z,95561.62
2018-03-17T09:19:15.639Z,95566.41
2018-03-17T09:21:46.554Z,95564.21
2018-03-17T09:24:16.722Z,95565.48
2018-03-17T09:26:46.696Z,95567.37
2018-03-17T09:29:23.328Z,95572.16
2018-03-17T09:31:53.373Z,95575.05
2018-03-17T09:34:23.616Z,95583.44
2018-03-17T09:36:54.701Z,95581.94
2018-03-17T09:39:25.186Z,95570.28
2018-03-17T09:41:55.913Z,95562.25
2018-03-17T09:44:26.811Z,95556.87
2018-03-17T09:46:57.475Z,95563.89
2018-03-17T09:49:27.971Z,95562.27
2018-03-17T09:51:58.265Z,95559.92
2018-03-17T09:54:29.916Z,95558.80
2018-03-17T09:57:01.677Z,95556.83
2018-03-17T09:59:31.305Z,95552.38
2018-03-17T10:02:02.202Z,95550.16
2018-03-17T10:04:31.876Z,95551.23
2018-03-17T10:07:02.753Z,95553.71
2018-03-17T10:09:32.502Z,95543.07
2018-03-17T10:12:02.269Z,95545.69
2018-03-17T10:14:32.082Z,95544.55
2018-03-17T10:17:02.209Z,95551.01
2018-03-17T10:19:31.729Z,95548.51
2018-03-17T10:22:01.638Z,95554.42
2018-03-17T10:24:31.554Z,95556.52
2018-03-17T10:27:01.463Z,95559.03
2018-03-17T10:29:31.178Z,95562.40
2018-03-17T10:32:00.851Z,95555.73
2018-03-17T10:34:30.475Z,95546.08
2018-03-17T10:36:59.979Z,95549.73
2018-03-17T10:39:29.610Z,95550.46
2018-03-17T10:41:59.594Z,95545.75
2018-03-17T10:44:31.401Z,95550.59
2018-03-17T10:47:01.249Z,95552.84
2018-03-17T10:49:31.587Z,95548.63
2018-03-17T10:52:01.085Z,95547.97
2018-03-17T10:54:30.798Z,95547.42
2018-03-17T10:57:00.434Z,95548.13
2018-03-17T10:59:30.253Z,95538.34
2018-03-17T11:02:05.686Z,95534.34
2018-03-17T11:04:42.084Z,95528.69
2018-03-17T11:07:13.489Z,95529.19
2018-03-17T11:09:42.993Z,95528.38
2018-03-17T11:12:14.835Z,95530.51
2018-03-17T11:14:44.509Z,95526.22
2018-03-17T11:17:14.337Z,95524.70
2018-03-17T11:19:44.251Z,95529.28
2018-03-17T11:22:14.461Z,95520.42
2018-03-17T11:24:44.979Z,95515.91
2018-03-17T11:27:17.072Z,95514.09
2018-03-17T11:29:47.537Z,95511.23
2018-03-17T11:32:17.389Z,95506.51
2018-03-17T11:34:47.325Z,95498.42
2018-03-17T11:37:20.510Z,95506.41
2018-03-17T11:39:50.774Z,95502.95
2018-03-17T11:45:40.470Z,95488.52
2018-03-17T11:48:10.329Z,95490.19
2018-03-17T11:50:40.731Z,95483.19
2018-03-17T11:53:10.600Z,95484.39
2018-03-17T11:55:42.739Z,95478.84
2018-03-17T11:58:19.477Z,95477.94
2018-03-17T12:00:49.527Z,95481.77
2018-03-17T12:03:19.520Z,95470.77
2018-03-17T12:05:50.248Z,95471.41
2018-03-17T12:08:20.214Z,95465.61
2018-03-17T12:10:49.779Z,95462.97
2018-03-17T12:13:19.731Z,95469.75
2018-03-17T12:15:50.417Z,95466.59
2018-03-17T12:18:21.833Z,95464.41
2018-03-17T12:20:51.516Z,95455.23
2018-03-17T12:23:21.119Z,95455.31
2018-03-17T12:25:53.339Z,95457.61
2018-03-17T12:28:23.833Z,95458.04
2018-03-17T12:30:53.638Z,95452.09
2018-03-17T12:33:23.168Z,95447.44
2018-03-17T12:35:53.364Z,95450.28
2018-03-17T12:38:23.285Z,95428.03
2018-03-17T12:40:52.964Z,95424.30
2018-03-17T12:43:23.320Z,95432.84
2018-03-17T12:45:52.976Z,95426.21
2018-03-17T12:48:23.668Z,95435.95
2018-03-17T12:54:17.483Z,95434.42
2018-03-17T12:56:47.076Z,95431.20
2018-03-17T12:59:17.813Z,95434.10
2018-03-17T13:01:49.019Z,95433.39
2018-03-17T13:04:18.862Z,95438.20
2018-03-17T13:06:48.459Z,95439.08
2018-03-17T13:09:18.178Z,95436.42
2018-03-17T13:11:48.490Z,95434.98
2018-03-17T13:14:18.593Z,95438.78
2018-03-17T13:16:48.947Z,95438.34
2018-03-17T13:19:34.525Z,95442.28
2018-03-17T13:22:05.297Z,95445.04
2018-03-17T13:24:36.216Z,95453.55
2018-03-17T13:27:23.961Z,95452.69
2018-03-17T13:29:54.756Z,95449.30
2018-03-17T13:32:42.399Z,95444.36
2018-03-17T13:35:12.074Z,95436.30
2018-03-17T13:37:41.817Z,95437.09
2018-03-17T13:40:29.348Z,95440.30
2018-03-17T13:42:59.360Z,95424.36
2018-03-17T13:45:30.077Z,95424.33
2018-03-17T13:47:59.863Z,95428.05
2018-03-17T13:50:30.312Z,95423.45
2018-03-17T13:53:00.221Z,95422.42
2018-03-17T13:55:29.858Z,95419.81
2018-03-17T13:58:00.329Z,95420.30
2018-03-17T14:00:39.573Z,95428.67
2018-03-17T14:03:11.375Z,95432.86
2018-03-17T14:05:41.935Z,95433.00
2018-03-17T14:08:12.983Z,95429.55
2018-03-17T14:10:45.801Z,95433.98
2018-03-17T14:13:16.487Z,95432.61
2018-03-17T14:15:47.490Z,95430.86
2018-03-17T14:18:17.448Z,95430.95
2018-03-17T14:20:48.254Z,95425.35
2018-03-17T14:23:19.930Z,95429.81
2018-03-17T14:25:49.940Z,95439.05
2018-03-17T14:28:20.156Z,95439.92
2018-03-17T14:30:55.962Z,95440.95
2018-03-17T14:33:26.656Z,95435.24
2018-03-17T14:35:57.279Z,95435.45
2018-03-17T14:38:27.968Z,95430.97
2018-03-17T14:40:59.134Z,95438.11
2018-03-17T14:43:29.791Z,95438.70
2018-03-17T14:46:00.048Z,95431.52
2018-03-17T14:48:30.537Z,95428.75
2018-03-17T14:51:02.654Z,95430.50
2018-03-17T14:53:33.097Z,95426.05
2018-03-17T14:56:03.119Z,95425.00
2018-03-17T14:58:33.537Z,95426.33
2018-03-17T15:01:04.582Z,95429.88
2018-03-17T15:03:37.167Z,95432.58
2018-03-17T15:06:12.601Z,95436.63
2018-03-17T15:08:42.574Z,95437.91
2018-03-17T15:11:12.682Z,95421.67
2018-03-17T15:13:43.388Z,95428.78
2018-03-17T15:16:14.881Z,95438.86
2018-03-17T15:18:46.121Z,95433.83
2018-03-17T15:21:16.112Z,95434.53
2018-03-17T15:23:46.381Z,95430.58
2018-03-17T15:26:17.482Z,95448.05
2018-03-17T15:28:47.874Z,95447.19
2018-03-17T15:31:20.381Z,95457.42
2018-03-17T15:33:50.256Z,95465.20
2018-03-17T15:36:20.641Z,95470.73
2018-03-17T15:38:51.199Z,95466.70
2018-03-17T15:41:22.639Z,95466.66
2018-03-17T15:43:53.886Z,95468.78
2018-03-17T15:46:24.093Z,95472.48
2018-03-17T15:48:54.004Z,95475.03
2018-03-17T15:51:24.514Z,95477.69
2018-03-17T15:53:54.218Z,95477.42
2018-03-17T15:56:25.613Z,95481.33
2018-03-17T15:58:56.358Z,95489.41
2018-03-17T16:01:26.044Z,95490.84
2018-03-17T16:03:55.647Z,95489.58
2018-03-17T16:06:25.563Z,95506.28
2018-03-17T16:08:57.042Z,95496.61
2018-03-17T16:11:26.573Z,95504.98
2018-03-17T16:13:56.849Z,95503.99
2018-03-17T16:16:27.386Z,95504.16
2018-03-17T16:18:56.860Z,95505.24
2018-03-17T16:21:26.677Z,95499.62
2018-03-17T16:23:57.474Z,95504.50
2018-03-17T16:26:29.964Z,95511.16
2018-03-17T16:29:00.452Z,95508.86
2018-03-17T16:31:30.135Z,95521.71
2018-03-17T16:33:59.695Z,95529.92
2018-03-17T16:36:29.271Z,95529.45
2018-03-17T16:38:59.087Z,95534.55
2018-03-17T16:41:30.766Z,95533.10
2018-03-17T16:44:14.946Z,95537.78
2018-03-17T16:46:45.304Z,95544.91
2018-03-17T16:49:14.777Z,95546.55
2018-03-17T16:51:44.567Z,95548.12
2018-03-17T16:54:14.189Z,95546.44
2018-03-17T16:56:46.058Z,95553.47
2018-03-17T16:59:17.709Z,95555.39
2018-03-17T17:01:49.628Z,95559.17
2018-03-17T17:04:19.374Z,95563.27
2018-03-17T17:06:49.967Z,95555.39
2018-03-17T17:09:20.604Z,95569.19
2018-03-17T17:11:50.223Z,95570.45
2018-03-17T17:14:21.159Z,95565.77
2018-03-17T17:16:51.164Z,95566.39
2018-03-17T17:19:20.821Z,95573.53
2018-03-17T17:21:51.399Z,95575.10
2018-03-17T17:24:22.036Z,95579.71
2018-03-17T17:26:53.488Z,95581.16
2018-03-17T17:29:25.703Z,95592.06
2018-03-17T17:31:58.021Z,95594.99
2018-03-17T17:34:27.566Z,95599.23
2018-03-17T17:36:57.301Z,95592.08
2018-03-17T17:39:27.402Z,95590.92
2018-03-17T17:41:57.884Z,95595.17
2018-03-17T17:44:27.481Z,95610.30
2018-03-17T17:46:57.098Z,95613.99
2018-03-17T17:49:26.921Z,95616.55
2018-03-17T17:51:56.485Z,95622.23
2018-03-17T17:54:29.166Z,95623.41
2018-03-17T17:57:00.398Z,95633.50
2018-03-17T17:59:30.887Z,95635.23
2018-03-17T18:02:00.810Z,95639.86
2018-03-17T18:04:30.934Z,95644.49
2018-03-17T18:07:00.734Z,95648.19
2018-03-17T18:09:31.788Z,95652.86
2018-03-17T18:12:01.629Z,95645.84
2018-03-17T18:14:31.529Z,95647.29
2018-03-17T18:17:02.024Z,95657.11
2018-03-17T18:19:32.100Z,95646.42
2018-03-17T18:22:02.224Z,95651.33
2018-03-17T18:24:33.135Z,95656.97
2018-03-17T18:27:03.768Z,95655.73
2018-03-17T18:29:34.533Z,95658.65
2018-03-17T18:32:05.560Z,95662.03
2018-03-17T18:34:36.286Z,95657.46
2018-03-17T18:37:06.229Z,95662.56
2018-03-17T18:39:36.817Z,95665.48
2018-03-17T18:42:06.609Z,95676.16
2018-03-17T18:44:37.528Z,95680.30
2018-03-17T18:47:08.368Z,95687.45
2018-03-17T18:49:38.269Z,95697.58
2018-03-17T18:52:07.907Z,95698.33
2018-03-17T18:54:37.565Z,95701.94
2018-03-17T18:57:08.173Z,95695.64
2018-03-17T18:59:37.958Z,95707.31
2018-03-17T19:02:07.893Z,95692.20
2018-03-17T19:04:37.420Z,95704.63
2018-03-17T19:07:07.164Z,95712.80
2018-03-17T19:09:37.605Z,95712.86
2018-03-17T19:12:07.239Z,95710.63
2018-03-17T19:14:36.870Z,95714.70
2018-03-17T19:17:06.445Z,95713.11
2018-03-17T19:19:36.092Z,95711.73
2018-03-17T19:22:05.566Z,95714.98
2018-03-17T19:24:35.091Z,95708.67
2018-03-17T19:27:05.270Z,95711.77
2018-03-17T19:29:35.819Z,95709.25
2018-03-17T19:32:05.303Z,95708.95
2018-03-17T19:34:35.840Z,95711.80
2018-03-17T19:37:05.586Z,95724.31
2018-03-17T19:39:35.088Z,95717.88
2018-03-17T19:42:04.807Z,95723.69
2018-03-17T19:44:35.487Z,95729.02
2018-03-17T19:47:05.240Z,95733.05
2018-03-17T19:49:34.852Z,95749.72
2018-03-17T19:52:05.550Z,95748.70
2018-03-17T19:54:36.021Z,95754.22
2018-03-17T19:57:12.039Z,95759.06
2018-03-17T19:59:49.984Z,95765.89
2018-03-17T20:02:20.548Z,95771.49
2018-03-17T20:04:50.828Z,95772.02
2018-03-17T20:07:21.968Z,95770.63
2018-03-17T20:09:53.168Z,95776.29
2018-03-17T20:12:24.524Z,95776.81
2018-03-17T20:14:55.545Z,95776.38
2018-03-17T20:17:26.790Z,95777.99
2018-03-17T20:19:56.972Z,95773.05
2018-03-17T20:22:26.590Z,95783.10
2018-03-17T20:25:12.892Z,95787.22
2018-03-17T20:27:47.149Z,95787.87
2018-03-17T20:30:17.427Z,95779.98
2018-03-17T20:32:47.796Z,95784.41
2018-03-17T20:35:19.918Z,95788.15
2018-03-17T20:37:49.629Z,95782.12
2018-03-17T20:40:19.638Z,95788.28
2018-03-17T20:42:49.623Z,95781.34
2018-03-17T20:45:21.944Z,95777.06
2018-03-17T20:47:51.858Z,95783.63
2018-03-17T20:50:21.630Z,95780.69
2018-03-17T20:52:51.539Z,95793.69
2018-03-17T20:55:22.722Z,95793.97
2018-03-17T20:57:52.297Z,95797.98
2018-03-17T21:00:21.904Z,95799.20
2018-03-17T21:02:53.413Z,95797.88
2018-03-17T21:05:29.064Z,95801.06
2018-03-17T21:08:05.342Z,95805.61
2018-03-17T21:10:35.314Z,95810.84
2018-03-17T21:13:04.888Z,95796.77
2018-03-17T21:15:35.347Z,95804.25
2018-03-17T21:18:05.033Z,95813.50
2018-03-17T21:20:35.431Z,95811.72
2018-03-17T21:23:05.744Z,95818.05
2018-03-17T21:25:35.441Z,95819.40
2018-03-17T21:28:05.007Z,95818.59
2018-03-17T21:30:35.001Z,95822.91
2018-03-17T21:33:04.675Z,95827.33
2018-03-17T21:35:35.139Z,95826.67
2018-03-17T21:38:05.419Z,95824.65
2018-03-17T21:40:35.544Z,95821.03
2018-03-17T21:43:05.680Z,95810.58
2018-03-17T21:45:35.422Z,95812.05
2018-03-17T21:48:05.770Z,95818.35
2018-03-17T21:50:35.385Z,95812.73
2018-03-17T21:53:05.187Z,95808.03
2018-03-17T21:55:35.749Z,95807.63
2018-03-17T21:58:05.456Z,95806.41
2018-03-17T22:00:35.030Z,95800.94
2018-03-17T22:03:05.314Z,95805.64
2018-03-17T22:05:35.499Z,95805.88
2018-03-17T22:08:05.331Z,95812.84
2018-03-17T22:10:34.795Z,95813.50
2018-03-17T22:13:04.466Z,95821.02
2018-03-17T22:15:34.139Z,95819.54
2018-03-17T22:18:04.458Z,95824.36
2018-03-17T22:20:34.460Z,95820.34
2018-03-17T22:23:04.435Z,95817.14
2018-03-17T22:25:36.119Z,95819.41
2018-03-17T22:28:06.240Z,95814.74
2018-03-17T22:30:37.289Z,95813.78
2018-03-17T22:33:13.740Z,95812.20
2018-03-17T22:35:45.649Z,95808.98
2018-03-17T22:38:15.576Z,95807.46
2018-03-17T22:40:45.380Z,95804.66
2018-03-17T22:43:14.881Z,95799.81
2018-03-17T22:45:45.154Z,95787.51
2018-03-17T22:48:14.803Z,95785.64
2018-03-17T22:50:44.641Z,95789.38
2018-03-17T22:53:14.261Z,95793.14
2018-03-17T22:55:43.759Z,95778.13
2018-03-17T22:58:13.719Z,95775.32
2018-03-17T23:00:44.015Z,95781.75
2018-03-17T23:03:14.317Z,95763.52
2018-03-17T23:05:49.115Z,95753.08
2018-03-17T23:08:20.879Z,95762.59
2018-03-17T23:10:50.412Z,95756.70
2018-03-17T23:13:19.995Z,95760.22
2018-03-17T23:15:49.671Z,95760.22
2018-03-17T23:18:20.110Z,95768.66
2018-03-17T23:20:50.436Z,95759.67
2018-03-17T23:23:20.395Z,95772.13
2018-03-17T23:25:49.914Z,95768.63
2018-03-17T23:28:19.915Z,95771.84
2018-03-17T23:30:50.058Z,95760.89
2018-03-17T23:33:20.941Z,95765.44
2018-03-17T23:35:51.909Z,95759.68
2018-03-17T23:38:21.745Z,95773.06
2018-03-17T23:40:51.277Z,95776.97
2018-03-17T23:43:23.675Z,95774.65
2018-03-17T23:45:53.365Z,95777.47
2018-03-17T23:48:23.613Z,95772.09
2018-03-17T23:50:53.564Z,95776.92
2018-03-17T23:53:23.127Z,95781.48
2018-03-17T23:55:53.094Z,95779.48
2018-03-17T23:58:22.811Z,95780.41
